Aérodrome :
LOGIN :

S'inscrire | Disclaimer

   EN    FR    IT 

 










Légende :    VFR   VFR Marginal   IFR   IFR Intensif   IFR Très Intensif
Visi : 
Plafond : 
>= 8 km
>= 3000ft
5 à 8 km
1000 à 3000 ft
1500m à 5 km
500 à 1000 ft
800 à 1500m
200 à 500 ft
< 800m
< 200 ft
Symboles :   Orages  Brouillard  Fortes neiges  Fortes précipitations  Vent > 20 kt
SIGMETs :   Divers  Orages  Givrage  Turbulence  Onde Orograph.  Cendres Volcan.







- Altitude de l'aérodrome : 299 ft
- Code IATA : EDM
- Voir les cartes d'approche


LFRI - La Roche Sur Yon - Les Ajoncs

DERNIER METAR :
  • 191100Z AUTO 17004KT 130V210 9999 BKN015 11/08 Q1023 NOSIG

METARs EXPIRÉS :
  • 191030Z AUTO 13003KT 070V190 9999 BKN012 12/08 Q1023 BECMG SCT015
  • 191000Z AUTO 12003KT 090V150 9999 FEW009 09/09 Q1023 TEMPO 4500 BR BKN006
  • 190930Z AUTO VRB02KT 9999 VV/// 09/09 Q1023 TEMPO 4500 BR BECMG SCT015
  • 190900Z AUTO VRB01KT 0650 0600 R28/1100D FG VV/// 08/08 Q1023 BECMG 4500 BR BKN006
  • 190830Z AUTO 13003KT 0400 R28/0550U FG VV/// 07/07 Q1022 BECMG 4500 BR BKN006

TAF TAF LFRI
Valide du 19 à 06h jusqu'au 20 à 06h UTC


190500Z 1906/2006 VRB03KT 2000 BR BKN002 BKN020
TEMPO 1906/1909 0400 FG VV///
BECMG 1909/1911 4500 BR BKN006
BECMG 1911/1913 9999 NSW SCT015
BECMG 1922/1924 3000 BR
PROB30
TEMPO 2001/2006 0500 FG VV///
Pas de NOTAMs connus pour ce terrain.
2 SIGMETs publiés pour la FIR Brest (LFRR) :
 
Turbulence forte
LFRR SIGMET 4 VALID 191200/191600 LFPW
LFRR BREST FIR/UIR SEV TURB FCST SE OF LINE N4545 W00145 - N4400 W00345 FL180/300 STNR NC=
Turbulence forte
LFRR SIGMET 3 VALID 190800/191200 LFPW
LFRR BREST FIR/UIR SEV TURB FCST SE OF LINE N4800 W00015 - N4415 W00430 FL200/300 STNR NC=



MET'MAP, la Météo Aéronautique d'un coup d'oeil ! - Copyright ORBIFLY Décembre 2007 - Disclaimer

ORBIFLY MET'MAP TEAM :

Programmation & Développement : Alexandra Zaïnal
Conception & Développement : Baudouin d'Aumeries
Co-Programmation & Développement : Marc-Olivier Méhu
Soutien technique & logistique : Manuel Goepfert

Contact : metmap@orbifly.com




SOURCES & CREDITS :

   NOAA